Time;durP1;ratioP1;P1;durP2;ratioP2;P2;SDS_P1;SDS_P2;PMS_P1;PMS_P2;Temp;Humidity;BMP_temperature;BMP_pressure;BME280_temperature;BME280_humidity;BME280_pressure;Samples;Min_cycle;Max_cycle;Signal;HPM_P1;HPM_P2
2023/03/29 00:01:11;;;;;;;2.92;1.50;;;;;;;9.11;57.20;101637.34;5120933;28;20153;-63
2023/03/29 00:04:00;;;;;;;3.63;2.03;;;;;;;9.11;56.98;101631.16;5117965;28;20067;-63
2023/03/29 00:06:31;;;;;;;3.08;2.05;;;;;;;9.09;56.97;101631.34;5122766;28;20043;-64
2023/03/29 00:09:00;;;;;;;3.95;1.60;;;;;;;9.05;57.22;101616.66;5121314;28;20057;-63
2023/03/29 00:11:28;;;;;;;3.72;1.67;;;;;;;9.09;56.82;101623.28;5117975;28;20505;-63
2023/03/29 00:13:56;;;;;;;4.20;2.13;;;;;;;9.09;56.86;101622.47;5115900;28;20059;-63
2023/03/29 00:16:24;;;;;;;1.95;1.38;;;;;;;9.06;57.17;101615.63;5120165;28;20040;-63
2023/03/29 00:18:52;;;;;;;5.35;2.17;;;;;;;9.07;57.07;101617.28;5122079;28;20040;-63
2023/03/29 00:21:20;;;;;;;3.38;1.92;;;;;;;9.06;57.18;101612.94;5122583;28;20480;-63
2023/03/29 00:23:49;;;;;;;2.38;1.50;;;;;;;9.06;56.89;101604.06;5118578;28;20091;-63
2023/03/29 00:26:17;;;;;;;2.60;1.40;;;;;;;9.06;57.05;101594.19;5122606;28;20075;-64
2023/03/29 00:28:44;;;;;;;3.85;1.55;;;;;;;9.07;56.88;101600.38;5121700;28;20102;-64
2023/03/29 00:31:14;;;;;;;3.10;1.77;;;;;;;9.05;57.03;101595.22;5121607;28;20194;-63
2023/03/29 00:33:43;;;;;;;5.63;1.60;;;;;;;9.06;56.96;101593.34;5117805;28;20134;-63
2023/03/29 00:36:12;;;;;;;2.45;1.58;;;;;;;9.07;57.22;101589.66;5122610;28;20067;-63
2023/03/29 00:38:40;;;;;;;3.25;1.70;;;;;;;9.07;57.02;101586.97;5118917;28;20130;-63
2023/03/29 00:41:10;;;;;;;4.00;1.75;;;;;;;9.07;57.69;101590.47;5115895;28;20043;-64
2023/03/29 00:43:59;;;;;;;4.35;2.00;;;;;;;9.08;56.75;101596.66;5116328;28;20095;-63
2023/03/29 00:46:29;;;;;;;4.53;1.50;;;;;;;9.03;57.03;101588.38;5109225;28;20130;-63
2023/03/29 00:49:00;;;;;;;3.67;1.75;;;;;;;9.02;57.00;101582.19;5121342;28;20039;-63
2023/03/29 00:51:33;;;;;;;3.60;1.70;;;;;;;9.06;57.40;101586.13;5121801;28;20044;-63
2023/03/29 00:54:03;;;;;;;3.50;1.75;;;;;;;9.06;57.17;101591.50;5120276;28;20054;-63
2023/03/29 00:56:36;;;;;;;4.03;1.63;;;;;;;9.06;57.87;101593.34;5120809;28;20040;-63
2023/03/29 00:59:06;;;;;;;4.32;1.50;;;;;;;9.07;57.70;101586.97;5118177;28;20048;-63
2023/03/29 01:01:40;;;;;;;2.50;1.63;;;;;;;9.07;57.35;101578.91;5121179;28;20461;-63
2023/03/29 01:04:17;;;;;;;5.78;2.00;;;;;;;9.06;57.84;101583.47;5120756;28;20045;-63
2023/03/29 01:06:48;;;;;;;5.18;2.08;;;;;;;9.01;57.69;101574.34;5117642;28;20047;-63
2023/03/29 01:09:19;;;;;;;3.08;1.52;;;;;;;9.05;57.72;101578.28;5120316;28;20405;-63
2023/03/29 01:11:54;;;;;;;4.85;1.58;;;;;;;9.01;58.05;101571.66;5120184;28;20059;-63
2023/03/29 01:14:29;;;;;;;2.60;1.52;;;;;;;9.04;58.16;101576.63;5114066;28;20067;-63
2023/03/29 01:16:58;;;;;;;3.10;1.70;;;;;;;9.01;57.42;101572.47;5110640;28;20081;-63
2023/03/29 01:19:32;;;;;;;3.95;1.80;;;;;;;9.00;58.09;101565.47;5119808;28;20067;-63
2023/03/29 01:22:12;;;;;;;2.20;1.30;;;;;;;9.00;57.59;101575.34;5113033;28;20062;-63
2023/03/29 01:24:55;;;;;;;2.47;1.50;;;;;;;9.00;58.08;101564.63;5120579;28;20097;-63
2023/03/29 01:27:39;;;;;;;2.67;1.60;;;;;;;8.99;57.80;101557.63;5119536;28;20115;-63
2023/03/29 01:30:12;;;;;;;2.42;1.30;;;;;;;8.99;57.63;101558.44;5115156;28;20044;-63
2023/03/29 01:32:47;;;;;;;3.97;1.67;;;;;;;8.98;57.77;101558.63;5119259;28;20040;-63
2023/03/29 01:35:21;;;;;;;3.20;1.55;;;;;;;8.98;58.30;101547.91;5112070;28;20350;-63
2023/03/29 01:37:55;;;;;;;3.75;1.60;;;;;;;8.97;58.54;101541.72;5119728;28;20066;-63
2023/03/29 01:40:26;;;;;;;3.58;1.52;;;;;;;8.99;58.22;101546.88;5121559;28;20077;-63
2023/03/29 01:43:04;;;;;;;2.40;1.58;;;;;;;8.98;57.93;101539.88;5118427;28;20039;-63
2023/03/29 01:45:36;;;;;;;2.15;1.30;;;;;;;8.97;58.19;101536.38;5118130;28;20040;-63
2023/03/29 01:48:10;;;;;;;3.72;1.95;;;;;;;8.98;58.06;101521.94;5110320;28;20039;-63
2023/03/29 01:50:44;;;;;;;2.83;1.50;;;;;;;8.97;58.09;101522.97;5117395;28;20378;-63
2023/03/29 01:53:18;;;;;;;3.10;1.58;;;;;;;8.98;57.71;101513.88;5121131;28;20044;-63
2023/03/29 01:55:51;;;;;;;4.85;1.85;;;;;;;8.99;58.49;101518.22;5121621;28;20115;-63
2023/03/29 01:58:23;;;;;;;6.68;1.85;;;;;;;8.98;58.25;101513.88;5119732;28;20055;-63
2023/03/29 02:00:54;;;;;;;3.35;1.35;;;;;;;8.98;57.90;101505.03;5117911;27;20073;-63
2023/03/29 02:03:25;;;;;;;2.72;1.50;;;;;;;8.97;58.77;101501.50;5119975;28;20046;-63
2023/03/29 02:05:54;;;;;;;2.78;1.52;;;;;;;8.97;58.16;101498.00;5120486;28;20054;-63
2023/03/29 02:08:23;;;;;;;3.22;1.70;;;;;;;8.95;58.54;101495.50;5116315;28;20051;-63
2023/03/29 02:10:51;;;;;;;2.72;1.42;;;;;;;8.95;58.36;101495.50;5113199;28;20047;-63
2023/03/29 02:13:20;;;;;;;3.72;1.60;;;;;;;8.97;57.73;101492.63;5119418;28;20079;-63
2023/03/29 02:15:48;;;;;;;3.30;1.50;;;;;;;8.97;57.87;101498.00;5115389;28;20047;-63
2023/03/29 02:18:18;;;;;;;3.60;1.40;;;;;;;8.97;58.54;101496.16;5113999;28;20069;-63
2023/03/29 02:20:48;;;;;;;2.65;1.25;;;;;;;8.97;58.25;101489.97;5113980;28;20044;-63
2023/03/29 02:23:22;;;;;;;3.63;1.70;;;;;;;8.96;58.38;101483.78;5113998;28;20043;-63
2023/03/29 02:25:52;;;;;;;3.15;1.35;;;;;;;8.96;58.50;101490.97;5110524;28;20126;-63
2023/03/29 02:28:23;;;;;;;4.65;1.80;;;;;;;8.96;58.28;101477.56;5115403;28;20111;-63
2023/03/29 02:30:56;;;;;;;2.28;1.45;;;;;;;8.97;57.61;101477.38;5104616;28;20070;-63
2023/03/29 02:33:30;;;;;;;3.55;1.50;;;;;;;8.98;58.06;101471.00;5116202;28;20065;-63
2023/03/29 02:36:03;;;;;;;4.18;1.45;;;;;;;8.97;58.03;101466.66;5120553;28;20081;-63
2023/03/29 02:38:32;;;;;;;3.90;1.90;;;;;;;8.96;57.76;101464.19;5119730;28;20081;-62
2023/03/29 02:41:01;;;;;;;3.35;1.42;;;;;;;8.92;58.48;101454.88;5113850;28;20057;-63
2023/03/29 02:43:32;;;;;;;5.07;1.60;;;;;;;8.99;58.42;101463.78;5119083;28;20046;-63
2023/03/29 02:46:01;;;;;;;2.45;1.40;;;;;;;8.97;58.49;101461.28;5110402;28;20051;-63
2023/03/29 02:48:30;;;;;;;3.80;1.45;;;;;;;8.96;58.20;101458.81;5113915;28;20047;-63
2023/03/29 02:51:03;;;;;;;1.95;1.17;;;;;;;8.97;58.55;101458.63;5109800;28;20052;-63
2023/03/29 02:53:37;;;;;;;2.88;1.40;;;;;;;8.98;58.04;101452.22;5118361;28;20061;-63
2023/03/29 02:56:06;;;;;;;3.35;1.30;;;;;;;8.97;57.85;101450.56;5118279;28;20070;-63
2023/03/29 02:58:35;;;;;;;2.85;1.50;;;;;;;8.96;57.88;101446.25;5117027;28;20044;-63
2023/03/29 03:01:05;;;;;;;3.13;1.75;;;;;;;8.98;58.44;101454.09;5115919;28;20107;-63
2023/03/29 03:03:34;;;;;;;2.25;1.33;;;;;;;8.99;57.72;101455.75;5117980;28;20113;-63
2023/03/29 03:06:02;;;;;;;3.60;1.63;;;;;;;8.98;58.00;101452.22;5117408;28;20043;-63
2023/03/29 03:08:30;;;;;;;5.75;1.50;;;;;;;8.98;58.49;101449.53;5108811;28;20242;-63
2023/03/29 03:10:58;;;;;;;3.13;1.45;;;;;;;8.96;58.35;101440.88;5117836;28;20129;-63
2023/03/29 03:13:26;;;;;;;2.40;1.65;;;;;;;8.97;57.92;101447.06;5117870;28;20039;-63
2023/03/29 03:15:56;;;;;;;2.85;1.55;;;;;;;8.94;58.33;101437.56;5114566;28;20047;-63
2023/03/29 03:18:23;;;;;;;3.92;1.50;;;;;;;8.93;58.65;101441.25;5115007;28;20066;-63
2023/03/29 03:20:55;;;;;;;2.85;1.40;;;;;;;8.92;57.76;101431.56;5118731;28;20138;-63
2023/03/29 03:23:23;;;;;;;4.50;1.60;;;;;;;8.94;57.95;101442.94;5106986;28;20087;-63
2023/03/29 03:25:52;;;;;;;4.07;1.63;;;;;;;8.95;58.36;101435.72;5117407;28;20100;-64
2023/03/29 03:28:20;;;;;;;1.80;1.00;;;;;;;8.91;58.49;101427.22;5114777;28;20219;-64
2023/03/29 03:30:48;;;;;;;2.33;1.45;;;;;;;8.91;58.56;101423.72;5113964;28;20063;-64
2023/03/29 03:33:18;;;;;;;2.65;1.40;;;;;;;8.93;58.27;101427.03;5118277;28;20043;-64
2023/03/29 03:35:46;;;;;;;2.03;1.23;;;;;;;8.93;57.79;101433.22;5123056;28;20504;-64
2023/03/29 03:38:15;;;;;;;4.47;1.40;;;;;;;8.93;58.81;101435.06;5116383;28;20048;-64
2023/03/29 03:40:43;;;;;;;2.97;1.48;;;;;;;8.92;58.35;101436.09;5121626;28;20043;-64
2023/03/29 03:43:11;;;;;;;3.58;1.52;;;;;;;8.92;58.47;101430.75;5119641;28;20040;-64
2023/03/29 03:45:39;;;;;;;2.25;1.40;;;;;;;8.85;58.72;101419.16;5121880;28;20047;-64
2023/03/29 03:48:07;;;;;;;2.35;1.33;;;;;;;8.92;58.45;101426.22;5113249;28;20059;-64
2023/03/29 03:50:37;;;;;;;2.67;1.27;;;;;;;8.92;58.66;101428.06;5121998;28;20040;-64
2023/03/29 03:53:04;;;;;;;1.80;1.20;;;;;;;8.92;58.27;101425.38;5119063;28;20059;-64
2023/03/29 03:55:33;;;;;;;1.80;1.10;;;;;;;8.93;58.03;101427.88;5120440;28;20043;-64
2023/03/29 03:58:01;;;;;;;4.00;1.63;;;;;;;8.93;58.26;101435.91;5119900;28;20047;-64
2023/03/29 04:00:28;;;;;;;2.80;1.20;;;;;;;8.91;58.27;101426.41;5121939;28;20449;-64
2023/03/29 04:02:56;;;;;;;4.15;1.75;;;;;;;8.91;58.90;101435.28;5119914;28;20120;-64
2023/03/29 04:05:24;;;;;;;4.80;1.70;;;;;;;8.90;58.83;101428.25;5118953;28;20372;-64
2023/03/29 04:07:54;;;;;;;2.13;1.45;;;;;;;8.90;57.94;101420.22;5120124;28;20043;-64
2023/03/29 04:10:22;;;;;;;2.67;1.50;;;;;;;8.90;58.34;101417.53;5122230;28;20044;-64
2023/03/29 04:12:50;;;;;;;3.30;1.33;;;;;;;8.92;58.72;101420.03;5108985;28;20052;-64
2023/03/29 04:15:19;;;;;;;3.15;1.70;;;;;;;8.90;57.98;101420.22;5112936;28;20110;-64
2023/03/29 04:17:46;;;;;;;3.00;1.48;;;;;;;8.80;58.57;101404.47;5117725;28;20052;-64
2023/03/29 04:20:15;;;;;;;2.63;1.50;;;;;;;8.90;58.55;101412.19;5121739;27;20247;-64
2023/03/29 04:22:43;;;;;;;3.25;1.40;;;;;;;8.92;58.53;101418.16;5117708;28;20078;-64
2023/03/29 04:25:12;;;;;;;2.30;1.27;;;;;;;8.90;58.08;101409.50;5121925;28;20086;-64
2023/03/29 04:27:40;;;;;;;2.33;1.25;;;;;;;8.90;57.85;101414.84;5120441;28;20369;-64
2023/03/29 04:30:09;;;;;;;3.72;1.65;;;;;;;8.90;58.51;101408.66;5122396;28;20467;-64
2023/03/29 04:32:37;;;;;;;3.28;1.48;;;;;;;8.90;58.63;101403.31;5110143;28;20652;-64
2023/03/29 04:35:06;;;;;;;3.03;1.25;;;;;;;8.88;58.20;101402.69;5113718;28;20086;-64
2023/03/29 04:37:34;;;;;;;3.10;1.52;;;;;;;8.91;58.40;101408.47;5122386;28;20048;-64
2023/03/29 04:40:08;;;;;;;3.45;1.58;;;;;;;8.90;58.41;101408.66;5122667;28;20176;-64
2023/03/29 04:42:37;;;;;;;3.00;1.40;;;;;;;8.91;57.97;101399.59;5118811;28;20040;-64
2023/03/29 04:45:06;;;;;;;3.30;1.50;;;;;;;8.91;58.33;101407.63;5121105;28;20079;-64
2023/03/29 04:47:35;;;;;;;4.60;1.70;;;;;;;8.90;58.84;101405.97;5115534;27;20063;-64
2023/03/29 04:50:03;;;;;;;2.28;1.33;;;;;;;8.90;58.49;101414.03;5116469;28;20039;-64
2023/03/29 04:52:32;;;;;;;4.25;1.52;;;;;;;8.89;58.42;101407.84;5120680;28;20127;-64
2023/03/29 04:55:00;;;;;;;2.97;1.50;;;;;;;8.89;58.61;101399.78;5119571;28;20082;-64
2023/03/29 04:57:28;;;;;;;3.30;1.60;;;;;;;8.88;58.93;101395.47;5114903;27;20473;-63
2023/03/29 04:59:57;;;;;;;3.85;1.42;;;;;;;8.90;58.95;101392.59;5118608;28;20047;-65
2023/03/29 05:02:25;;;;;;;3.17;1.42;;;;;;;8.91;58.07;101394.25;5118501;28;20152;-64
2023/03/29 05:04:53;;;;;;;3.17;1.70;;;;;;;8.89;58.40;101397.13;5113338;28;20111;-63
2023/03/29 05:07:21;;;;;;;3.05;1.40;;;;;;;8.91;58.45;101388.88;5119252;28;20082;-63
2023/03/29 05:09:49;;;;;;;3.83;1.33;;;;;;;8.91;58.86;101384.34;5118316;28;20058;-63
2023/03/29 05:12:17;;;;;;;3.53;1.60;;;;;;;8.91;59.00;101384.34;5120297;28;20503;-63
2023/03/29 05:14:45;;;;;;;6.60;1.50;;;;;;;8.93;58.78;101386.81;5116779;28;20044;-63
2023/03/29 05:17:14;;;;;;;2.67;1.42;;;;;;;8.92;58.45;101386.00;5112217;28;20105;-63
2023/03/29 05:19:43;;;;;;;2.47;1.60;;;;;;;8.94;58.10;101383.13;5118471;28;20130;-62
2023/03/29 05:22:11;;;;;;;6.15;1.80;;;;;;;8.94;58.15;101385.81;5117993;28;20044;-64
2023/03/29 05:24:38;;;;;;;4.78;1.77;;;;;;;8.93;58.60;101382.28;5121407;28;20421;-62
2023/03/29 05:27:06;;;;;;;3.42;1.77;;;;;;;8.91;59.05;101384.34;5119148;28;20075;-64
2023/03/29 05:29:34;;;;;;;2.33;1.40;;;;;;;8.94;58.96;101383.13;5117736;28;20172;-63
2023/03/29 05:32:02;;;;;;;3.35;1.70;;;;;;;8.94;58.31;101392.00;5115196;28;20111;-65
2023/03/29 05:34:31;;;;;;;4.28;1.48;;;;;;;8.94;58.05;101391.16;5117084;28;20082;-63
2023/03/29 05:37:00;;;;;;;4.95;1.50;;;;;;;8.97;58.90;101396.97;5116667;28;20076;-64
2023/03/29 05:39:28;;;;;;;3.95;1.65;;;;;;;8.95;58.16;101400.84;5118134;28;20054;-62
2023/03/29 05:41:56;;;;;;;3.83;1.80;;;;;;;8.96;58.62;101408.69;5111410;28;20048;-63
2023/03/29 05:44:23;;;;;;;2.90;1.70;;;;;;;8.96;58.73;101410.56;5118197;28;20115;-62
2023/03/29 05:46:51;;;;;;;4.10;1.63;;;;;;;8.96;58.22;101410.56;5118505;28;20445;-62
2023/03/29 05:49:20;;;;;;;3.55;1.70;;;;;;;8.94;58.53;101413.44;5118473;28;20073;-62
2023/03/29 05:51:50;;;;;;;3.35;1.65;;;;;;;8.94;58.40;101407.25;5120075;28;20090;-62
2023/03/29 05:54:18;;;;;;;5.03;1.48;;;;;;;8.96;58.36;101414.06;5108973;28;20094;-63
2023/03/29 05:56:46;;;;;;;3.17;1.60;;;;;;;8.96;58.76;101414.06;5118294;28;20204;-63
2023/03/29 05:59:14;;;;;;;3.65;1.80;;;;;;;8.96;59.10;101407.88;5117004;28;20043;-65
2023/03/29 06:01:44;;;;;;;2.95;1.70;;;;;;;8.95;58.65;101406.22;4758679;28;10000322;-64
2023/03/29 06:04:12;;;;;;;3.92;2.15;;;;;;;8.95;58.67;101406.22;5112865;28;20056;-64
2023/03/29 06:06:40;;;;;;;3.08;1.63;;;;;;;8.96;58.50;101408.69;5116137;28;20055;-64
2023/03/29 06:09:09;;;;;;;3.03;1.63;;;;;;;8.97;58.95;101404.16;5114467;28;20463;-63
2023/03/29 06:11:38;;;;;;;2.90;1.70;;;;;;;8.92;59.02;101398.56;5113863;28;20055;-68
2023/03/29 06:14:06;;;;;;;8.25;2.55;;;;;;;8.96;58.99;101402.50;5115946;28;20108;-63
2023/03/29 06:16:35;;;;;;;4.30;1.85;;;;;;;8.92;59.52;101407.44;5105031;28;20093;-63
2023/03/29 06:19:03;;;;;;;4.32;1.95;;;;;;;8.94;59.54;101412.59;5113000;28;20055;-64
2023/03/29 06:21:31;;;;;;;7.45;2.10;;;;;;;8.96;59.66;101415.91;5115357;28;20043;-63
2023/03/29 06:24:00;;;;;;;5.00;1.63;;;;;;;8.96;59.46;101411.38;5116183;28;20054;-63
2023/03/29 06:26:29;;;;;;;3.35;1.80;;;;;;;8.98;59.23;101420.06;5116928;28;20469;-63
2023/03/29 06:28:57;;;;;;;4.05;1.70;;;;;;;9.01;59.69;101400.06;5116485;28;20083;-64
2023/03/29 06:31:25;;;;;;;3.53;1.77;;;;;;;9.16;58.66;101410.66;5108817;28;20107;-63
2023/03/29 06:33:53;;;;;;;3.40;1.80;;;;;;;9.30;58.52;101401.66;5114979;28;20061;-63
2023/03/29 06:36:21;;;;;;;3.58;1.55;;;;;;;9.50;58.00;101405.25;5109140;28;20079;-63
2023/03/29 06:38:49;;;;;;;6.47;1.73;;;;;;;9.65;57.56;101400.56;5111033;28;20111;-64
2023/03/29 06:41:16;;;;;;;3.45;1.77;;;;;;;9.88;56.41;101394.81;5117492;28;20074;-63
2023/03/29 06:43:45;;;;;;;6.97;1.70;;;;;;;10.07;55.94;101388.66;5110513;28;20127;-63
2023/03/29 06:46:13;;;;;;;3.58;1.55;;;;;;;10.27;55.40;101386.00;5108914;28;20475;-64
2023/03/29 06:48:41;;;;;;;5.20;1.65;;;;;;;10.34;55.08;101396.75;5115636;28;20105;-63
2023/03/29 06:51:09;;;;;;;5.50;1.80;;;;;;;10.31;55.27;101395.31;5103684;28;20069;-63
2023/03/29 06:53:37;;;;;;;7.30;1.70;;;;;;;10.17;55.79;101392.78;5114884;28;20061;-63
2023/03/29 06:56:07;;;;;;;5.20;2.10;;;;;;;10.04;56.31;101390.91;5115029;28;20054;-63
2023/03/29 06:58:36;;;;;;;5.32;2.00;;;;;;;9.92;56.79;101395.25;5115167;28;20086;-63
2023/03/29 07:01:06;;;;;;;4.95;1.95;;;;;;;9.79;57.52;101396.88;5105280;28;20066;-64
2023/03/29 07:03:35;;;;;;;3.25;1.90;;;;;;;9.72;57.21;101401.41;5112140;28;20108;-64
2023/03/29 07:06:08;;;;;;;5.15;2.10;;;;;;;9.63;57.92;101399.09;5110369;28;20047;-64
2023/03/29 07:08:42;;;;;;;5.10;1.80;;;;;;;9.60;57.59;101407.56;5117319;28;20137;-64
2023/03/29 07:11:12;;;;;;;2.28;1.60;;;;;;;9.55;58.16;101410.00;5112927;28;20108;-64
2023/03/29 07:13:41;;;;;;;5.40;2.00;;;;;;;9.50;58.15;101409.78;5119385;28;20653;-64
2023/03/29 07:16:11;;;;;;;3.80;1.95;;;;;;;9.46;58.85;101415.56;5119208;28;20054;-64
2023/03/29 07:18:40;;;;;;;4.10;1.98;;;;;;;9.44;58.58;101406.88;5118011;28;20369;-63
2023/03/29 07:21:09;;;;;;;5.28;2.25;;;;;;;9.42;58.60;101406.25;5121475;28;20043;-64
2023/03/29 07:23:37;;;;;;;2.65;1.58;;;;;;;9.36;59.24;101403.53;5108943;28;20505;-63
2023/03/29 07:26:06;;;;;;;4.53;2.05;;;;;;;9.40;59.61;101415.53;5116691;28;20065;-63
2023/03/29 07:28:36;;;;;;;3.97;2.28;;;;;;;9.38;59.43;101413.03;5119771;28;20043;-63
2023/03/29 07:31:05;;;;;;;4.28;1.73;;;;;;;9.37;59.02;101429.34;5116590;28;20437;-64
2023/03/29 07:33:34;;;;;;;3.15;1.80;;;;;;;9.36;59.56;101425.00;5120157;28;20063;-64
2023/03/29 07:36:03;;;;;;;4.45;1.85;;;;;;;9.34;59.79;101424.38;5116075;28;20110;-63
2023/03/29 07:38:31;;;;;;;4.45;2.10;;;;;;;9.32;60.07;101437.97;5115798;28;20044;-63
2023/03/29 07:41:02;;;;;;;5.97;1.85;;;;;;;9.30;60.30;101437.34;5119961;28;20070;-63
2023/03/29 07:43:30;;;;;;;4.22;2.83;;;;;;;9.30;60.36;101449.94;5120511;28;20081;-63
2023/03/29 07:46:00;;;;;;;5.35;2.03;;;;;;;9.30;60.25;101447.25;5118192;28;20086;-63
2023/03/29 07:48:29;;;;;;;7.03;2.40;;;;;;;9.30;59.68;101449.94;5112112;28;20498;-64
2023/03/29 07:50:58;;;;;;;5.05;2.30;;;;;;;9.28;59.90;101447.47;5120835;28;20101;-64
2023/03/29 07:53:28;;;;;;;4.85;1.80;;;;;;;9.29;60.13;101448.28;5120827;28;20063;-64
2023/03/29 07:55:56;;;;;;;6.47;2.08;;;;;;;9.26;60.50;101443.31;5121001;28;20597;-64
2023/03/29 07:58:24;;;;;;;4.95;1.98;;;;;;;9.29;60.22;101459.00;5120197;28;20663;-64
2023/03/29 08:00:52;;;;;;;4.07;2.03;;;;;;;9.28;60.00;101460.03;5119008;28;20550;-64
2023/03/29 08:03:20;;;;;;;3.97;2.30;;;;;;;9.29;60.31;101459.00;5122919;28;20115;-64
2023/03/29 08:05:48;;;;;;;4.05;2.40;;;;;;;9.29;60.90;101461.69;5118310;28;20043;-64
2023/03/29 08:08:17;;;;;;;6.40;2.45;;;;;;;9.27;60.26;101451.16;5119845;28;20048;-64
2023/03/29 08:10:45;;;;;;;4.10;2.15;;;;;;;9.28;61.06;101446.63;5123425;28;20044;-64
2023/03/29 08:13:13;;;;;;;4.57;2.60;;;;;;;9.28;60.52;101454.66;5111989;28;20047;-64
2023/03/29 08:15:45;;;;;;;2.80;2.17;;;;;;;9.29;61.16;101449.09;5120461;28;20105;-64
2023/03/29 08:18:12;;;;;;;5.15;2.33;;;;;;;9.29;60.66;101448.28;5114029;28;20465;-63
2023/03/29 08:20:41;;;;;;;5.40;2.35;;;;;;;9.36;60.58;101443.78;5121717;28;20096;-64
2023/03/29 08:23:09;;;;;;;4.43;2.22;;;;;;;9.56;60.42;101446.53;5123395;27;20058;-64
2023/03/29 08:25:38;;;;;;;8.85;2.65;;;;;;;9.74;60.16;101450.34;5118852;28;20331;-64
2023/03/29 08:28:06;;;;;;;3.60;1.90;;;;;;;9.95;59.15;101451.22;5120439;28;20449;-64
2023/03/29 08:30:35;;;;;;;4.32;2.30;;;;;;;10.16;58.42;101443.00;5121548;28;20044;-64
2023/03/29 08:33:02;;;;;;;3.58;2.15;;;;;;;10.36;58.51;101441.19;5118002;28;20108;-63
2023/03/29 08:35:31;;;;;;;5.00;1.98;;;;;;;10.51;57.31;101429.38;5115336;28;20128;-63
2023/03/29 08:37:58;;;;;;;5.22;2.15;;;;;;;10.74;56.45;101437.84;5122247;28;20058;-64
2023/03/29 08:40:30;;;;;;;4.35;2.20;;;;;;;10.90;56.41;101423.16;5121207;28;20059;-64
2023/03/29 08:43:32;;;;;;;4.47;2.20;;;;;;;11.06;55.88;101431.59;5118630;28;20055;-64
2023/03/29 08:46:11;;;;;;;5.15;2.20;;;;;;;11.19;56.15;101422.66;5108878;28;20158;-62
2023/03/29 08:48:44;;;;;;;8.45;2.58;;;;;;;11.34;55.49;101427.78;5118787;28;20067;-62
2023/03/29 08:51:20;;;;;;;4.68;2.22;;;;;;;11.40;55.42;101432.31;5114916;28;20050;-62
2023/03/29 08:53:52;;;;;;;4.15;2.45;;;;;;;11.46;55.46;101433.31;5119075;28;20048;-62
2023/03/29 08:56:25;;;;;;;4.88;2.15;;;;;;;11.48;55.32;101433.94;5113282;28;20210;-68
2023/03/29 08:58:56;;;;;;;4.78;1.92;;;;;;;11.49;55.09;101419.44;5112167;28;20075;-61
2023/03/29 09:01:28;;;;;;;4.50;1.95;;;;;;;11.53;55.09;101418.81;5116413;28;20497;-61
2023/03/29 09:04:05;;;;;;;3.38;2.03;;;;;;;11.56;55.09;101421.06;5121711;28;20059;-61
2023/03/29 09:06:33;;;;;;;5.40;2.28;;;;;;;11.59;55.13;101412.56;5119379;28;20111;-62
2023/03/29 09:09:01;;;;;;;3.47;2.08;;;;;;;11.64;54.91;101420.00;5120805;28;20062;-62
2023/03/29 09:11:48;;;;;;;3.72;2.28;;;;;;;11.69;54.86;101423.69;5109096;28;20582;-62
2023/03/29 09:14:39;;;;;;;5.90;2.22;;;;;;;11.72;55.41;101417.06;5110017;28;20632;-61
2023/03/29 09:17:16;;;;;;;6.63;2.72;;;;;;;11.74;55.37;101426.56;5121415;28;20146;-62
2023/03/29 09:19:54;;;;;;;6.07;2.35;;;;;;;11.63;55.46;101421.88;5115620;28;20122;-61
2023/03/29 09:22:30;;;;;;;3.55;2.00;;;;;;;11.45;56.07;101415.53;5114910;28;20052;-61
2023/03/29 09:25:11;;;;;;;2.67;1.92;;;;;;;11.26;56.79;101425.31;5118397;28;20060;-61
2023/03/29 09:27:46;;;;;;;7.65;2.53;;;;;;;11.02;57.59;101416.91;5120074;28;20043;-61
2023/03/29 09:30:24;;;;;;;4.22;2.15;;;;;;;10.88;58.38;101417.16;5100541;28;20074;-62
2023/03/29 09:32:54;;;;;;;3.88;2.03;;;;;;;10.75;58.48;101429.56;5117595;28;20051;-61
2023/03/29 09:35:23;;;;;;;5.45;2.15;;;;;;;10.67;59.78;101431.66;5111406;28;20040;-62
2023/03/29 09:37:53;;;;;;;7.07;2.75;;;;;;;10.58;59.61;101428.34;5109277;28;20043;-61
2023/03/29 09:40:26;;;;;;;5.00;2.33;;;;;;;10.53;60.06;101428.16;5117644;28;20097;-61
2023/03/29 09:42:55;;;;;;;6.07;2.60;;;;;;;10.62;61.04;101439.50;5115470;28;20073;-63
2023/03/29 09:45:24;;;;;;;4.65;2.20;;;;;;;10.78;59.49;101436.41;5121048;28;20063;-63
2023/03/29 09:47:56;;;;;;;5.40;2.40;;;;;;;10.98;59.77;101425.59;5119942;28;20054;-63
2023/03/29 09:50:30;;;;;;;7.10;2.42;;;;;;;11.16;59.48;101431.16;5119233;28;20349;-62
2023/03/29 09:52:59;;;;;;;5.03;2.50;;;;;;;11.39;58.24;101422.59;5112013;28;20048;-62
2023/03/29 09:55:29;;;;;;;4.50;2.60;;;;;;;11.58;57.67;101421.69;5107326;28;20070;-67
2023/03/29 09:58:00;;;;;;;6.35;2.78;;;;;;;11.71;57.58;101426.16;5120956;28;20058;-62
2023/03/29 10:00:29;;;;;;;4.82;3.35;;;;;;;11.84;57.75;101428.81;5119266;28;20075;-62
2023/03/29 10:02:58;;;;;;;4.85;2.47;;;;;;;11.94;57.37;101422.97;5118593;28;20378;-62
2023/03/29 10:05:36;;;;;;;5.38;2.63;;;;;;;11.85;58.05;101424.25;5120386;28;20051;-62
2023/03/29 10:08:17;;;;;;;6.63;2.38;;;;;;;11.65;58.49;101425.16;5112034;28;20035;-61
2023/03/29 10:10:47;;;;;;;5.13;2.28;;;;;;;11.43;59.34;101423.81;4764612;28;10001091;-62
2023/03/29 10:13:22;;;;;;;6.28;2.42;;;;;;;11.26;59.29;101428.84;5117989;28;20051;-62
2023/03/29 10:16:06;;;;;;;6.47;2.53;;;;;;;11.13;59.50;101422.69;5111636;28;20075;-62
2023/03/29 10:18:40;;;;;;;6.90;2.42;;;;;;;11.02;60.54;101426.84;5109982;28;20093;-62
2023/03/29 10:21:13;;;;;;;6.07;2.92;;;;;;;10.94;60.90;101424.38;5115198;28;20540;-62
2023/03/29 10:23:42;;;;;;;9.05;3.03;;;;;;;10.90;60.87;101417.75;5115689;28;20386;-63
2023/03/29 10:26:21;;;;;;;6.00;2.55;;;;;;;10.86;60.89;101413.84;5117603;28;20050;-62
2023/03/29 10:28:52;;;;;;;4.15;2.15;;;;;;;10.82;61.11;101405.38;5112620;28;20054;-62
2023/03/29 10:31:23;;;;;;;6.10;2.17;;;;;;;10.82;61.18;101400.00;5110116;28;20048;-63
2023/03/29 10:33:53;;;;;;;5.78;2.50;;;;;;;10.79;61.84;101396.91;5116382;28;20093;-62
2023/03/29 10:36:23;;;;;;;6.55;2.92;;;;;;;10.81;61.12;101384.91;5114272;28;20103;-62
2023/03/29 10:38:53;;;;;;;5.15;2.53;;;;;;;10.78;61.94;101393.38;5122430;27;20111;-62
2023/03/29 10:41:22;;;;;;;8.00;2.40;;;;;;;10.76;62.45;101398.97;5111725;28;20259;-63
2023/03/29 10:43:51;;;;;;;4.18;2.50;;;;;;;10.75;62.25;101391.13;5116253;28;20057;-63
2023/03/29 10:46:23;;;;;;;5.10;2.35;;;;;;;10.75;61.84;101391.13;5115211;28;20073;-63
2023/03/29 10:48:56;;;;;;;5.68;2.70;;;;;;;10.75;62.51;101378.50;5112757;28;20147;-61
2023/03/29 10:51:26;;;;;;;4.75;2.75;;;;;;;10.74;62.19;101374.16;5115654;28;20167;-61
2023/03/29 10:53:54;;;;;;;5.72;2.42;;;;;;;10.75;62.40;101372.28;5117007;28;20131;-63
2023/03/29 10:56:35;;;;;;;4.47;2.60;;;;;;;10.74;62.89;101365.25;5113946;28;20036;-61
2023/03/29 10:59:21;;;;;;;5.68;2.97;;;;;;;10.74;62.77;101360.72;5116901;28;20070;-59
2023/03/29 11:02:05;;;;;;;9.30;2.80;;;;;;;10.79;62.44;101359.25;5111807;28;20119;-61
2023/03/29 11:04:42;;;;;;;6.18;2.15;;;;;;;10.88;62.36;101349.94;5113886;28;20166;-61
2023/03/29 11:07:26;;;;;;;5.75;2.05;;;;;;;10.89;62.46;101354.25;5112248;28;20043;-61
2023/03/29 11:10:02;;;;;;;6.00;2.90;;;;;;;10.88;62.50;101356.13;5106126;28;20058;-61
2023/03/29 11:12:38;;;;;;;9.25;2.70;;;;;;;10.86;62.87;101358.19;5104343;28;20057;-61
2023/03/29 11:15:33;;;;;;;4.38;2.53;;;;;;;10.86;63.14;101358.19;5116750;28;20094;-61
2023/03/29 11:18:25;;;;;;;4.60;2.97;;;;;;;10.85;63.21;101350.34;5114696;28;20057;-59
2023/03/29 11:20:58;;;;;;;7.10;2.70;;;;;;;10.82;62.97;101327.41;5106016;28;20147;-60
2023/03/29 11:23:39;;;;;;;4.70;2.58;;;;;;;10.78;63.07;101323.47;5115759;28;20054;-61
2023/03/29 11:26:15;;;;;;;8.32;3.00;;;;;;;10.87;63.25;101338.34;5115895;28;20054;-63
2023/03/29 11:28:51;;;;;;;8.85;3.92;;;;;;;11.01;62.98;101341.81;5106518;28;20040;-63
2023/03/29 11:31:31;;;;;;;4.07;2.25;;;;;;;11.20;63.17;101348.97;5117482;28;20048;-62
2023/03/29 11:34:14;;;;;;;11.80;2.60;;;;;;;11.20;62.83;101348.16;5113853;28;20149;-62
2023/03/29 11:36:51;;;;;;;6.22;2.92;;;;;;;11.09;62.78;101350.47;5109719;28;20039;-61
2023/03/29 11:39:30;;;;;;;7.35;2.65;;;;;;;11.09;63.35;101357.72;5111678;28;20047;-61
2023/03/29 11:42:08;;;;;;;5.90;2.80;;;;;;;11.05;63.45;101346.56;5113453;28;20470;-62
2023/03/29 11:44:37;;;;;;;6.43;2.60;;;;;;;11.05;63.68;101334.97;5116061;28;20070;-62
2023/03/29 11:47:10;;;;;;;7.95;3.13;;;;;;;11.04;63.87;101336.00;5116012;28;20117;-62
2023/03/29 11:49:44;;;;;;;5.35;2.30;;;;;;;11.23;64.33;101331.59;5119502;28;20049;-62